createdAt,value
2019-04-07T00:01:01.330Z,4.23
2019-04-07T00:03:30.197Z,4.00
2019-04-07T00:05:59.764Z,3.97
2019-04-07T00:08:28.779Z,4.60
2019-04-07T00:10:57.862Z,4.40
2019-04-07T00:13:27.164Z,4.33
2019-04-07T00:15:56.072Z,4.70
2019-04-07T00:18:24.993Z,5.70
2019-04-07T00:20:54.068Z,4.63
2019-04-07T00:23:23.035Z,4.33
2019-04-07T00:25:52.004Z,4.10
2019-04-07T00:28:21.188Z,4.57
2019-04-07T00:30:51.320Z,4.37
2019-04-07T00:33:20.699Z,4.63
2019-04-07T00:35:49.746Z,4.83
2019-04-07T00:38:19.322Z,4.93
2019-04-07T00:40:48.336Z,4.70
2019-04-07T00:43:17.219Z,5.27
2019-04-07T00:45:46.090Z,4.47
2019-04-07T00:48:14.938Z,5.70
2019-04-07T00:50:43.818Z,5.47
2019-04-07T00:53:13.424Z,5.87
2019-04-07T00:55:42.524Z,5.73
2019-04-07T00:58:11.559Z,5.40
2019-04-07T01:00:41.563Z,5.53
2019-04-07T01:03:10.667Z,6.63
2019-04-07T01:05:41.757Z,6.13
2019-04-07T01:08:10.773Z,5.90
2019-04-07T01:10:40.516Z,5.73
2019-04-07T01:13:09.444Z,5.37
2019-04-07T01:15:38.435Z,6.93
2019-04-07T01:18:07.786Z,5.50
2019-04-07T01:20:36.731Z,6.60
2019-04-07T01:23:05.605Z,6.57
2019-04-07T01:25:34.568Z,6.67
2019-04-07T01:28:03.550Z,7.03
2019-04-07T01:30:32.672Z,7.40
2019-04-07T01:33:02.194Z,7.80
2019-04-07T01:35:31.180Z,8.30
2019-04-07T01:38:00.087Z,8.73
2019-04-07T01:40:29.007Z,7.37
2019-04-07T01:43:15.133Z,7.53
2019-04-07T01:45:52.460Z,6.70
2019-04-07T01:48:29.285Z,8.07
2019-04-07T01:51:05.799Z,8.33
2019-04-07T01:53:36.693Z,7.60
2019-04-07T01:56:16.226Z,7.77
2019-04-07T01:58:56.163Z,8.10
2019-04-07T02:01:27.352Z,8.40
2019-04-07T02:04:00.543Z,8.37
2019-04-07T02:06:34.820Z,8.13
2019-04-07T02:09:25.678Z,8.00
2019-04-07T02:12:13.107Z,9.30
2019-04-07T02:14:43.648Z,8.77
2019-04-07T02:17:14.679Z,8.77
2019-04-07T02:19:51.278Z,9.13
2019-04-07T02:22:38.596Z,9.30
2019-04-07T02:25:13.004Z,8.30
2019-04-07T02:27:46.766Z,9.60
2019-04-07T02:30:29.643Z,9.77
2019-04-07T02:33:06.285Z,9.70
2019-04-07T02:35:37.779Z,9.50
2019-04-07T02:38:16.323Z,8.97
2019-04-07T02:40:55.824Z,9.70
2019-04-07T02:43:42.751Z,9.37
2019-04-07T02:46:22.365Z,10.60
2019-04-07T02:49:04.227Z,10.83
2019-04-07T02:51:43.713Z,10.20
2019-04-07T02:54:17.487Z,10.67
2019-04-07T02:56:54.350Z,11.27
2019-04-07T02:59:24.893Z,10.13
2019-04-07T03:01:58.277Z,12.73
2019-04-07T03:04:44.443Z,12.63
2019-04-07T03:07:15.142Z,14.70
2019-04-07T03:09:45.594Z,14.50
2019-04-07T03:12:34.590Z,15.10
2019-04-07T03:15:15.007Z,13.23
2019-04-07T03:17:49.780Z,11.50
2019-04-07T03:20:23.398Z,13.03
2019-04-07T03:23:03.562Z,15.53
2019-04-07T03:25:34.322Z,14.83
2019-04-07T03:28:14.218Z,13.53
2019-04-07T03:30:49.427Z,20.43
2019-04-07T03:33:22.674Z,18.90
2019-04-07T03:35:54.110Z,16.20
2019-04-07T03:38:27.406Z,17.10
2019-04-07T03:41:07.300Z,14.97
2019-04-07T03:43:46.943Z,17.63
2019-04-07T03:46:26.968Z,19.37
2019-04-07T03:48:57.959Z,18.47
2019-04-07T03:51:28.519Z,17.57
2019-04-07T03:54:14.222Z,18.80
2019-04-07T03:56:51.850Z,16.10
2019-04-07T03:59:26.777Z,16.63
2019-04-07T04:02:00.409Z,16.73
2019-04-07T04:04:31.180Z,16.57
2019-04-07T04:07:22.371Z,13.90
2019-04-07T04:09:51.793Z,15.27
2019-04-07T04:12:35.706Z,14.90
2019-04-07T04:15:08.848Z,16.57
2019-04-07T04:17:37.724Z,15.10
2019-04-07T04:20:08.453Z,15.27
2019-04-07T04:22:37.950Z,13.67
2019-04-07T04:25:08.494Z,15.23
2019-04-07T04:27:38.803Z,16.00
2019-04-07T04:30:10.786Z,13.93
2019-04-07T04:32:40.051Z,14.00
2019-04-07T04:35:09.179Z,15.40
2019-04-07T04:37:44.180Z,15.33
2019-04-07T04:40:09.331Z,15.07
2019-04-07T04:42:38.383Z,16.07
2019-04-07T04:45:08.436Z,15.63
2019-04-07T04:47:37.861Z,16.67
2019-04-07T04:50:09.550Z,16.60
2019-04-07T04:52:38.934Z,15.30
2019-04-07T04:55:07.899Z,16.97
2019-04-07T04:57:36.808Z,19.50
2019-04-07T05:00:08.761Z,18.37
2019-04-07T05:02:38.247Z,19.07
2019-04-07T05:05:09.400Z,20.70
2019-04-07T05:07:53.855Z,20.43
2019-04-07T05:10:12.173Z,20.67
2019-04-07T05:12:41.937Z,18.37
2019-04-07T05:15:11.938Z,19.87
2019-04-07T05:17:42.059Z,20.43
2019-04-07T05:20:11.502Z,22.63
2019-04-07T05:22:41.130Z,21.43
2019-04-07T05:25:10.367Z,20.43
2019-04-07T05:27:39.272Z,21.67
2019-04-07T05:30:08.223Z,24.97
2019-04-07T05:32:37.741Z,23.53
2019-04-07T05:35:08.856Z,24.00
2019-04-07T05:37:38.428Z,23.83
2019-04-07T05:40:07.746Z,24.77
2019-04-07T05:42:36.597Z,23.73
2019-04-07T05:45:08.219Z,25.30
2019-04-07T05:47:37.488Z,26.23
2019-04-07T05:50:07.475Z,24.53
2019-04-07T05:52:39.562Z,25.70
2019-04-07T05:55:07.742Z,24.17
2019-04-07T05:57:36.785Z,23.07
2019-04-07T06:00:11.134Z,22.67
2019-04-07T06:02:39.227Z,20.23
2019-04-07T06:05:08.346Z,20.80
2019-04-07T06:07:37.797Z,20.10
2019-04-07T06:10:08.078Z,17.23
2019-04-07T06:12:39.636Z,17.40
2019-04-07T06:15:07.554Z,16.60
2019-04-07T06:17:36.757Z,16.40
2019-04-07T06:20:12.110Z,16.37
2019-04-07T06:22:39.245Z,14.70
2019-04-07T06:25:09.558Z,13.67
2019-04-07T06:27:39.315Z,14.70
2019-04-07T06:30:10.872Z,14.37
2019-04-07T06:32:40.015Z,15.17
2019-04-07T06:35:12.856Z,15.63
2019-04-07T06:37:40.719Z,13.13
2019-04-07T06:40:20.367Z,14.27
2019-04-07T06:42:48.822Z,14.27
2019-04-07T06:45:21.766Z,14.93
2019-04-07T06:47:51.864Z,13.90
2019-04-07T06:50:47.570Z,13.70
2019-04-07T06:53:23.542Z,12.83
2019-04-07T06:56:01.356Z,13.80
2019-04-07T06:58:32.159Z,13.30
2019-04-07T07:01:05.802Z,13.40
2019-04-07T07:03:39.145Z,14.20
2019-04-07T07:06:25.187Z,15.40
2019-04-07T07:08:57.308Z,14.97
2019-04-07T07:11:45.151Z,16.67
2019-04-07T07:14:38.482Z,17.33
2019-04-07T07:17:09.095Z,15.30
2019-04-07T07:19:56.601Z,16.10
2019-04-07T07:22:26.972Z,15.53
2019-04-07T07:24:59.287Z,15.53
2019-04-07T07:27:27.326Z,15.17
2019-04-07T07:29:56.585Z,14.50
2019-04-07T07:32:25.927Z,15.97
2019-04-07T07:34:55.277Z,16.17
2019-04-07T07:37:25.390Z,15.47
2019-04-07T07:39:55.376Z,15.77
2019-04-07T07:42:24.517Z,15.70
2019-04-07T07:44:53.557Z,15.17
2019-04-07T07:47:23.020Z,15.27
2019-04-07T07:49:52.045Z,15.73
2019-04-07T07:52:21.912Z,15.60
2019-04-07T07:54:51.816Z,15.23
2019-04-07T07:57:23.481Z,14.03
2019-04-07T07:59:52.071Z,12.13
2019-04-07T08:02:21.880Z,13.33
2019-04-07T08:04:51.141Z,13.90
2019-04-07T08:07:20.324Z,13.70
2019-04-07T08:09:49.348Z,12.57
2019-04-07T08:12:25.822Z,12.53
2019-04-07T08:14:57.193Z,12.37
2019-04-07T08:17:25.916Z,11.93
2019-04-07T08:19:55.627Z,11.97
2019-04-07T08:22:29.975Z,11.13
2019-04-07T08:24:55.552Z,11.20
2019-04-07T08:27:24.636Z,10.00
2019-04-07T08:29:55.043Z,9.57
2019-04-07T08:32:25.933Z,10.43
2019-04-07T08:34:54.803Z,9.70
2019-04-07T08:37:25.204Z,9.50
2019-04-07T08:39:56.707Z,9.87
2019-04-07T08:42:25.184Z,9.77
2019-04-07T08:44:57.210Z,9.90
2019-04-07T08:47:25.777Z,9.30
2019-04-07T08:49:56.906Z,8.70
2019-04-07T08:52:25.953Z,9.17
2019-04-07T08:54:55.567Z,9.33
2019-04-07T08:57:27.232Z,8.20
2019-04-07T08:59:55.128Z,8.60
2019-04-07T09:02:27.475Z,8.40
2019-04-07T09:04:54.671Z,8.10
2019-04-07T09:07:24.615Z,8.10
2019-04-07T09:09:54.396Z,8.50
2019-04-07T09:12:26.855Z,8.17
2019-04-07T09:14:54.547Z,7.30
2019-04-07T09:17:38.570Z,7.90
2019-04-07T09:20:09.133Z,6.90
2019-04-07T09:22:43.689Z,6.80
2019-04-07T09:25:17.170Z,7.00
2019-04-07T09:27:51.091Z,6.97
2019-04-07T09:30:22.327Z,7.00
2019-04-07T09:32:59.561Z,6.33
2019-04-07T09:35:30.959Z,6.30
2019-04-07T09:38:02.014Z,6.27
2019-04-07T09:40:49.118Z,5.87
2019-04-07T09:43:22.559Z,5.73
2019-04-07T09:46:03.409Z,6.17
2019-04-07T09:48:48.724Z,6.50
2019-04-07T09:51:37.597Z,6.27
2019-04-07T09:54:13.207Z,5.90
2019-04-07T09:56:49.762Z,4.93
2019-04-07T09:59:26.166Z,4.47
2019-04-07T10:02:09.259Z,4.33
2019-04-07T10:04:48.934Z,3.60
2019-04-07T10:07:25.500Z,4.13
2019-04-07T10:10:13.651Z,4.07
2019-04-07T10:12:56.526Z,3.67
2019-04-07T10:15:29.914Z,3.87
2019-04-07T10:18:00.520Z,3.97
2019-04-07T10:20:47.083Z,4.43
2019-04-07T10:23:17.685Z,4.10
2019-04-07T10:25:48.215Z,3.73
2019-04-07T10:28:18.780Z,3.90
2019-04-07T10:30:49.339Z,3.80
2019-04-07T10:33:36.298Z,4.07
2019-04-07T10:36:09.478Z,3.47
2019-04-07T10:38:42.647Z,3.50
2019-04-07T10:41:18.773Z,3.20
2019-04-07T10:43:55.722Z,3.00
2019-04-07T10:46:38.225Z,2.50
2019-04-07T10:49:27.422Z,2.47
2019-04-07T10:52:14.765Z,2.57
2019-04-07T10:54:51.093Z,2.63
2019-04-07T10:57:36.794Z,2.87
2019-04-07T11:00:14.629Z,2.20
2019-04-07T11:03:00.889Z,2.43
2019-04-07T11:05:37.329Z,2.30
2019-04-07T11:08:10.637Z,2.37
2019-04-07T11:10:57.857Z,2.03
2019-04-07T11:13:28.930Z,2.20
2019-04-07T11:16:00.271Z,2.33
2019-04-07T11:18:33.834Z,2.20
2019-04-07T11:21:13.294Z,2.50
2019-04-07T11:23:49.808Z,1.83
2019-04-07T11:26:23.641Z,2.33
2019-04-07T11:28:54.091Z,2.10
2019-04-07T11:31:31.039Z,2.20
2019-04-07T11:34:04.394Z,1.80
2019-04-07T11:36:51.797Z,2.07
2019-04-07T11:39:29.017Z,2.27
2019-04-07T11:42:05.997Z,1.93
2019-04-07T11:44:46.744Z,2.50
2019-04-07T11:47:33.975Z,2.10
2019-04-07T11:50:09.357Z,1.77
2019-04-07T11:52:56.208Z,2.10
2019-04-07T11:55:28.104Z,2.10
2019-04-07T11:58:09.701Z,2.30
2019-04-07T12:00:46.296Z,2.10
2019-04-07T12:03:34.447Z,2.20
2019-04-07T12:06:04.851Z,2.13
2019-04-07T12:08:44.654Z,1.90
2019-04-07T12:11:32.682Z,2.33
2019-04-07T12:14:20.333Z,1.90
2019-04-07T12:17:04.561Z,2.17
2019-04-07T12:19:32.168Z,2.27
2019-04-07T12:22:15.071Z,2.00
2019-04-07T12:25:04.176Z,2.20
2019-04-07T12:27:52.367Z,1.83
2019-04-07T12:30:26.397Z,2.03
2019-04-07T12:33:07.913Z,2.40
2019-04-07T12:35:38.190Z,2.10
2019-04-07T12:38:20.951Z,1.90
2019-04-07T12:41:15.029Z,2.30
2019-04-07T12:43:49.184Z,2.23
2019-04-07T12:46:21.134Z,2.30
2019-04-07T12:48:54.468Z,2.13
2019-04-07T12:51:28.852Z,2.10
2019-04-07T12:54:17.946Z,2.50
2019-04-07T12:56:48.887Z,2.30
2019-04-07T12:59:19.387Z,2.30
2019-04-07T13:02:02.625Z,1.77
2019-04-07T13:04:47.079Z,1.80
2019-04-07T13:07:33.492Z,1.90
2019-04-07T13:10:07.389Z,1.90
2019-04-07T13:12:41.215Z,2.00
2019-04-07T13:15:30.160Z,1.87
2019-04-07T13:18:13.532Z,2.33
2019-04-07T13:20:56.200Z,1.90
2019-04-07T13:23:29.800Z,2.27
2019-04-07T13:26:18.747Z,2.33
2019-04-07T13:29:01.778Z,2.00
2019-04-07T13:31:49.221Z,2.50
2019-04-07T13:34:37.922Z,2.23
2019-04-07T13:37:10.993Z,2.57
2019-04-07T13:39:48.352Z,2.13
2019-04-07T13:42:29.198Z,2.13
2019-04-07T13:45:11.250Z,2.13
2019-04-07T13:47:57.901Z,2.17
2019-04-07T13:50:45.916Z,2.20
2019-04-07T13:53:26.327Z,2.10
2019-04-07T13:56:15.715Z,2.10
2019-04-07T13:59:04.040Z,2.00
2019-04-07T14:01:43.937Z,2.03
2019-04-07T14:04:21.738Z,2.10
2019-04-07T14:07:02.482Z,2.20
2019-04-07T14:09:33.131Z,2.03
2019-04-07T14:12:22.687Z,2.17
2019-04-07T14:15:05.256Z,2.03
2019-04-07T14:17:36.299Z,2.03
2019-04-07T14:20:08.939Z,2.40
2019-04-07T14:22:39.938Z,2.50
2019-04-07T14:25:26.743Z,2.70
2019-04-07T14:27:57.859Z,3.10
2019-04-07T14:30:45.521Z,2.57
2019-04-07T14:33:32.569Z,2.60
2019-04-07T14:36:09.112Z,3.57
2019-04-07T14:38:40.193Z,3.30
2019-04-07T14:41:11.699Z,3.37
2019-04-07T14:43:49.630Z,3.07
2019-04-07T14:46:21.188Z,2.70
2019-04-07T14:49:03.208Z,3.00
2019-04-07T14:51:50.142Z,2.27
2019-04-07T14:54:20.570Z,2.27
2019-04-07T14:57:00.962Z,2.30
2019-04-07T14:59:47.337Z,2.30
2019-04-07T15:02:17.102Z,2.40
2019-04-07T15:04:57.020Z,2.50
2019-04-07T15:07:44.072Z,2.70
2019-04-07T15:10:27.523Z,2.80
2019-04-07T15:12:58.218Z,3.20
2019-04-07T15:15:27.837Z,2.67
2019-04-07T15:17:57.581Z,2.60
2019-04-07T15:20:27.029Z,2.60
2019-04-07T15:22:58.425Z,2.50
2019-04-07T15:25:27.760Z,2.83
2019-04-07T15:27:58.902Z,2.60
2019-04-07T15:30:27.558Z,3.03
2019-04-07T15:32:59.528Z,3.43
2019-04-07T15:35:27.578Z,3.60
2019-04-07T15:37:57.686Z,3.83
2019-04-07T15:40:26.542Z,3.50
2019-04-07T15:42:55.683Z,3.23
2019-04-07T15:45:24.632Z,4.10
2019-04-07T15:47:54.015Z,3.33
2019-04-07T15:50:23.047Z,3.20
2019-04-07T15:52:51.965Z,3.87
2019-04-07T15:55:20.875Z,3.83
2019-04-07T15:57:53.565Z,3.80
2019-04-07T16:00:21.726Z,4.30
2019-04-07T16:02:52.186Z,4.93
2019-04-07T16:05:21.590Z,3.93
2019-04-07T16:07:53.149Z,4.10
2019-04-07T16:10:23.095Z,4.37
2019-04-07T16:12:53.576Z,5.03
2019-04-07T16:15:23.089Z,4.83
2019-04-07T16:17:52.412Z,4.87
2019-04-07T16:20:25.087Z,4.60
2019-04-07T16:22:52.755Z,4.67
2019-04-07T16:25:26.194Z,4.93
2019-04-07T16:27:52.292Z,4.60
2019-04-07T16:30:21.618Z,5.27
2019-04-07T16:32:50.592Z,4.87
2019-04-07T16:35:20.304Z,5.27
2019-04-07T16:37:49.367Z,5.47
2019-04-07T16:40:23.845Z,4.50
2019-04-07T16:43:04.774Z,5.60
2019-04-07T16:45:23.396Z,4.70
2019-04-07T16:47:53.013Z,4.37
2019-04-07T16:50:22.895Z,5.20
2019-04-07T16:52:52.009Z,4.57
2019-04-07T16:55:41.559Z,4.60
2019-04-07T16:58:11.647Z,4.33
2019-04-07T17:00:41.789Z,4.00
2019-04-07T17:03:11.512Z,4.03
2019-04-07T17:05:40.669Z,4.70
2019-04-07T17:08:09.825Z,4.60
2019-04-07T17:10:39.174Z,4.10
2019-04-07T17:13:17.033Z,4.40
2019-04-07T17:15:40.926Z,4.17
2019-04-07T17:18:13.066Z,4.43
2019-04-07T17:20:42.355Z,4.93
2019-04-07T17:23:12.193Z,4.20
2019-04-07T17:25:42.869Z,4.73
2019-04-07T17:28:13.577Z,4.40
2019-04-07T17:30:44.498Z,4.37
2019-04-07T17:33:13.509Z,3.97
2019-04-07T17:35:44.226Z,4.60
2019-04-07T17:38:13.917Z,4.10
2019-04-07T17:40:45.223Z,4.33
2019-04-07T17:43:45.821Z,4.43
2019-04-07T17:46:24.856Z,4.30
2019-04-07T17:49:09.998Z,4.37
2019-04-07T17:51:57.506Z,4.90
2019-04-07T17:54:28.949Z,5.03
2019-04-07T17:57:06.781Z,4.53
2019-04-07T17:59:45.771Z,5.23
2019-04-07T18:02:28.702Z,5.60
2019-04-07T18:04:57.059Z,5.60
2019-04-07T18:07:45.270Z,4.87
2019-04-07T18:10:22.549Z,5.23
2019-04-07T18:13:07.950Z,4.80
2019-04-07T18:15:41.519Z,4.87
2019-04-07T18:18:18.762Z,4.50
2019-04-07T18:20:54.003Z,5.70
2019-04-07T18:23:31.060Z,5.37
2019-04-07T18:26:18.867Z,5.87
2019-04-07T18:28:53.348Z,5.80
2019-04-07T18:31:22.121Z,6.07
2019-04-07T18:34:07.873Z,6.13
2019-04-07T18:36:57.778Z,5.77
2019-04-07T18:39:40.402Z,5.37
2019-04-07T18:42:17.792Z,5.97
2019-04-07T18:44:55.882Z,5.97
2019-04-07T18:47:32.169Z,6.23
2019-04-07T18:50:20.823Z,5.97
2019-04-07T18:53:10.293Z,6.60
2019-04-07T18:55:50.442Z,6.83
2019-04-07T18:58:24.588Z,6.23
2019-04-07T19:01:11.714Z,6.37
2019-04-07T19:03:58.578Z,6.40
2019-04-07T19:06:47.509Z,6.93
2019-04-07T19:09:33.549Z,5.73
2019-04-07T19:12:22.987Z,6.57
2019-04-07T19:15:03.755Z,6.83
2019-04-07T19:17:47.098Z,6.77
2019-04-07T19:20:27.616Z,6.97
2019-04-07T19:23:11.783Z,7.53
2019-04-07T19:25:57.743Z,7.00
2019-04-07T19:28:34.073Z,7.77
2019-04-07T19:31:15.553Z,7.90
2019-04-07T19:33:44.648Z,7.03
2019-04-07T19:36:17.726Z,8.60
2019-04-07T19:38:49.418Z,7.83
2019-04-07T19:41:20.007Z,7.70
2019-04-07T19:44:00.024Z,8.40
2019-04-07T19:46:46.101Z,8.73
2019-04-07T19:49:20.592Z,8.03
2019-04-07T19:51:54.888Z,8.23
2019-04-07T19:54:34.574Z,8.20
2019-04-07T19:57:05.113Z,8.33
2019-04-07T19:59:43.066Z,8.20
2019-04-07T20:02:22.443Z,8.53
2019-04-07T20:04:59.365Z,7.80
2019-04-07T20:07:39.728Z,8.80
2019-04-07T20:10:20.613Z,8.90
2019-04-07T20:12:58.383Z,8.80
2019-04-07T20:15:47.256Z,10.13
2019-04-07T20:18:18.671Z,10.73
2019-04-07T20:20:53.581Z,9.33
2019-04-07T20:23:36.330Z,10.13
2019-04-07T20:26:10.085Z,10.60
2019-04-07T20:28:56.795Z,10.00
2019-04-07T20:31:30.188Z,9.87
2019-04-07T20:34:05.766Z,11.07
2019-04-07T20:36:48.017Z,10.30
2019-04-07T20:39:30.959Z,9.40
2019-04-07T20:41:59.552Z,10.57
2019-04-07T20:44:39.135Z,11.10
2019-04-07T20:47:26.441Z,9.77
2019-04-07T20:49:56.899Z,9.83
2019-04-07T20:52:30.156Z,10.00
2019-04-07T20:55:13.528Z,10.23
2019-04-07T20:58:13.030Z,10.20
2019-04-07T21:00:53.343Z,10.40
2019-04-07T21:03:23.813Z,9.17
2019-04-07T21:06:08.573Z,10.07
2019-04-07T21:08:48.411Z,9.33
2019-04-07T21:11:30.829Z,10.00
2019-04-07T21:14:03.829Z,8.60
2019-04-07T21:16:57.900Z,8.90
2019-04-07T21:19:27.142Z,8.87
2019-04-07T21:22:12.443Z,8.37
2019-04-07T21:24:49.696Z,9.00
2019-04-07T21:27:20.616Z,7.87
2019-04-07T21:30:06.558Z,8.17
2019-04-07T21:32:54.172Z,7.73
2019-04-07T21:35:35.405Z,7.23
2019-04-07T21:38:16.171Z,8.27
2019-04-07T21:40:51.263Z,8.13
2019-04-07T21:43:30.791Z,8.00
2019-04-07T21:46:20.297Z,7.23
2019-04-07T21:49:00.340Z,7.03
2019-04-07T21:51:29.973Z,7.30
2019-04-07T21:54:04.014Z,6.57
2019-04-07T21:56:34.869Z,7.47
2019-04-07T21:59:08.052Z,6.93
2019-04-07T22:01:50.829Z,6.97
2019-04-07T22:04:38.172Z,7.13
2019-04-07T22:07:15.355Z,6.70
2019-04-07T22:09:49.460Z,6.47
2019-04-07T22:12:16.800Z,6.87
2019-04-07T22:14:46.432Z,7.03
2019-04-07T22:17:16.398Z,7.13
2019-04-07T22:19:46.700Z,7.80
2019-04-07T22:22:16.403Z,7.23
2019-04-07T22:24:46.295Z,6.50
2019-04-07T22:27:17.597Z,7.67
2019-04-07T22:29:46.873Z,7.20
2019-04-07T22:32:19.181Z,7.40
2019-04-07T22:34:46.416Z,8.40
2019-04-07T22:37:17.589Z,8.93
2019-04-07T22:39:45.839Z,8.67
2019-04-07T22:42:16.736Z,9.00
2019-04-07T22:44:45.352Z,8.13
2019-04-07T22:47:15.903Z,8.33
2019-04-07T22:49:45.154Z,9.77
2019-04-07T22:52:17.608Z,10.67
2019-04-07T22:54:44.822Z,11.47
2019-04-07T22:57:15.420Z,10.87
2019-04-07T22:59:44.396Z,10.10
2019-04-07T23:02:13.740Z,11.83
2019-04-07T23:04:42.753Z,11.30
2019-04-07T23:07:11.789Z,11.80
2019-04-07T23:09:41.159Z,12.07
2019-04-07T23:12:10.623Z,12.90
2019-04-07T23:14:40.143Z,12.20
2019-04-07T23:17:09.917Z,11.20
2019-04-07T23:19:39.860Z,11.17
2019-04-07T23:22:09.517Z,12.23
2019-04-07T23:24:39.029Z,11.40
2019-04-07T23:27:08.222Z,13.33
2019-04-07T23:29:37.158Z,11.77
2019-04-07T23:32:06.016Z,12.63
2019-04-07T23:34:42.173Z,11.77
2019-04-07T23:37:11.034Z,12.10
2019-04-07T23:39:39.923Z,12.87
2019-04-07T23:42:09.099Z,12.20
2019-04-07T23:44:38.132Z,12.33
2019-04-07T23:47:07.005Z,11.87
2019-04-07T23:49:36.314Z,12.83
2019-04-07T23:52:05.291Z,12.77
2019-04-07T23:54:35.183Z,13.03
2019-04-07T23:57:04.117Z,11.80
2019-04-07T23:59:32.947Z,12.90
